Time;durP1;ratioP1;P1;durP2;ratioP2;P2;SDS_P1;SDS_P2;PMS_P1;PMS_P2;Temp;Humidity;BMP_temperature;BMP_pressure;BME280_temperature;BME280_humidity;BME280_pressure;Samples;Min_cycle;Max_cycle;Signal;HPM_P1;HPM_P2
2022/09/24 00:00:39;;;;;;;0.90;0.90;;;;;;;;;;4934743;28;21249;-57
2022/09/24 00:03:05;;;;;;;0.93;0.93;;;;;;;;;;4952093;28;20230;-57
2022/09/24 00:05:35;;;;;;;1.00;1.00;;;;;;;;;;4942401;28;20317;-57
2022/09/24 00:08:01;;;;;;;0.70;0.70;;;;;;;;;;4951882;28;20225;-57
2022/09/24 00:10:27;;;;;;;0.90;0.90;;;;;;;;;;4948526;28;20245;-57
2022/09/24 00:12:53;;;;;;;0.83;0.83;;;;;;;;;;4945693;28;20226;-58
2022/09/24 00:15:19;;;;;;;0.73;0.73;;;;;;;;;;4946654;28;20222;-57
2022/09/24 00:17:46;;;;;;;0.70;0.70;;;;;;;;;;4958145;28;20289;-57
2022/09/24 00:20:12;;;;;;;0.90;0.90;;;;;;;;;;4939217;28;20231;-57
2022/09/24 00:22:37;;;;;;;0.80;0.80;;;;;;;;;;4944618;28;20269;-57
2022/09/24 00:27:48;;;;;;;0.80;0.80;;;;;;;;;;4945608;28;20893;-57
2022/09/24 00:30:14;;;;;;;0.90;0.90;;;;;;;;;;4941832;28;20329;-57
2022/09/24 00:32:40;;;;;;;0.90;0.90;;;;;;;;;;4941782;28;20430;-57
2022/09/24 00:35:06;;;;;;;0.90;0.90;;;;;;;;;;4946193;28;20315;-57
2022/09/24 00:37:32;;;;;;;0.80;0.80;;;;;;;;;;4937490;28;20397;-57
2022/09/24 00:39:58;;;;;;;0.87;0.87;;;;;;;;;;4942443;28;20818;-57
2022/09/24 00:42:24;;;;;;;1.10;1.10;;;;;;;;;;4936125;28;20301;-57
2022/09/24 00:44:53;;;;;;;0.80;0.80;;;;;;;;;;4945653;28;20235;-57
2022/09/24 00:47:22;;;;;;;0.80;0.80;;;;;;;;;;4932184;28;20229;-56
2022/09/24 00:49:48;;;;;;;0.90;0.90;;;;;;;;;;4949945;28;20235;-57
2022/09/24 00:52:14;;;;;;;0.80;0.80;;;;;;;;;;4941651;28;20774;-57
2022/09/24 00:54:42;;;;;;;1.00;1.00;;;;;;;;;;4933492;28;20241;-57
2022/09/24 00:57:07;;;;;;;0.80;0.80;;;;;;;;;;4916390;28;20326;-57
2022/09/24 00:59:33;;;;;;;0.80;0.80;;;;;;;;;;4942723;28;20234;-57
2022/09/24 01:02:00;;;;;;;0.90;0.90;;;;;;;;;;4944541;28;20779;-56
2022/09/24 01:04:27;;;;;;;0.70;0.70;;;;;;;;;;4951517;28;20246;-57
2022/09/24 01:06:53;;;;;;;0.90;0.90;;;;;;;;;;4924239;28;20433;-57
2022/09/24 01:09:19;;;;;;;0.63;0.63;;;;;;;;;;4941789;28;20227;-57
2022/09/24 01:11:48;;;;;;;0.80;0.80;;;;;;;;;;4935421;28;20319;-57
2022/09/24 01:14:20;;;;;;;0.90;0.90;;;;;;;;;;4945130;28;20301;-58
2022/09/24 01:16:48;;;;;;;0.70;0.70;;;;;;;;;;4936569;28;20266;-57
2022/09/24 01:19:14;;;;;;;1.03;1.03;;;;;;;;;;4950382;28;20685;-57
2022/09/24 01:21:44;;;;;;;0.70;0.70;;;;;;;;;;4930063;28;20229;-57
2022/09/24 01:24:13;;;;;;;0.70;0.70;;;;;;;;;;4948833;28;20288;-57
2022/09/24 01:26:51;;;;;;;0.93;0.93;;;;;;;;;;4932136;28;20264;-57
2022/09/24 01:29:25;;;;;;;0.90;0.90;;;;;;;;;;4939110;28;20650;-57
2022/09/24 01:32:04;;;;;;;0.80;0.80;;;;;;;;;;4926129;28;20756;-57
2022/09/24 01:34:32;;;;;;;1.00;1.00;;;;;;;;;;4944197;28;20237;-57
2022/09/24 01:36:58;;;;;;;0.93;0.93;;;;;;;;;;4940017;28;20643;-57
2022/09/24 01:39:24;;;;;;;0.90;0.90;;;;;;;;;;4921919;28;20290;-57
2022/09/24 01:41:50;;;;;;;0.80;0.80;;;;;;;;;;4919105;28;20225;-57
2022/09/24 01:44:17;;;;;;;0.90;0.90;;;;;;;;;;4934890;28;20318;-57
2022/09/24 01:46:43;;;;;;;1.00;1.00;;;;;;;;;;4931779;28;21471;-57
2022/09/24 01:49:09;;;;;;;0.70;0.70;;;;;;;;;;4938822;28;20317;-56
2022/09/24 01:51:40;;;;;;;0.90;0.90;;;;;;;;;;4949707;28;20709;-57
2022/09/24 01:54:08;;;;;;;0.70;0.70;;;;;;;;;;4940668;28;20719;-57
2022/09/24 01:56:36;;;;;;;0.80;0.80;;;;;;;;;;4922769;28;20246;-56
2022/09/24 01:59:04;;;;;;;0.80;0.80;;;;;;;;;;4937513;28;20254;-57
2022/09/24 02:01:34;;;;;;;0.80;0.80;;;;;;;;;;4943806;28;20710;-57
2022/09/24 02:04:02;;;;;;;0.97;0.97;;;;;;;;;;4935217;28;20219;-57
2022/09/24 02:06:35;;;;;;;0.70;0.70;;;;;;;;;;4952638;28;20226;-57
2022/09/24 02:09:01;;;;;;;1.00;1.00;;;;;;;;;;4947663;28;20679;-57
2022/09/24 02:11:27;;;;;;;0.70;0.70;;;;;;;;;;4955629;28;20273;-57
2022/09/24 02:14:10;;;;;;;0.70;0.70;;;;;;;;;;4944965;28;20220;-57
2022/09/24 02:16:37;;;;;;;0.80;0.80;;;;;;;;;;4929925;28;20269;-57
2022/09/24 02:19:07;;;;;;;0.70;0.70;;;;;;;;;;4941373;28;20263;-57
2022/09/24 02:21:33;;;;;;;1.00;1.00;;;;;;;;;;4933473;28;20284;-57
2022/09/24 02:24:20;;;;;;;0.70;0.70;;;;;;;;;;4945320;28;20235;-57
2022/09/24 02:26:46;;;;;;;0.83;0.83;;;;;;;;;;4951881;28;20309;-57
2022/09/24 02:29:12;;;;;;;0.80;0.80;;;;;;;;;;4944783;28;20230;-57
2022/09/24 02:31:38;;;;;;;0.70;0.70;;;;;;;;;;4945805;28;20227;-57
2022/09/24 02:34:22;;;;;;;0.80;0.80;;;;;;;;;;4922180;28;20333;-57
2022/09/24 02:36:52;;;;;;;0.97;0.97;;;;;;;;;;4949708;28;20409;-57
2022/09/24 02:39:18;;;;;;;0.80;0.80;;;;;;;;;;4945790;28;20833;-57
2022/09/24 02:41:47;;;;;;;0.90;0.90;;;;;;;;;;4950776;28;20241;-57
2022/09/24 02:44:16;;;;;;;0.90;0.90;;;;;;;;;;4932963;28;20250;-57
2022/09/24 02:46:43;;;;;;;0.97;0.97;;;;;;;;;;4944641;28;20233;-57
2022/09/24 02:49:09;;;;;;;0.97;0.97;;;;;;;;;;4944449;28;20235;-57
2022/09/24 02:51:35;;;;;;;0.90;0.90;;;;;;;;;;4944015;28;20353;-57
2022/09/24 02:54:01;;;;;;;0.87;0.87;;;;;;;;;;4948415;28;20843;-57
2022/09/24 02:56:28;;;;;;;0.90;0.90;;;;;;;;;;4945659;28;20239;-57
2022/09/24 02:58:54;;;;;;;1.00;1.00;;;;;;;;;;4952227;28;20735;-57
2022/09/24 03:01:21;;;;;;;0.90;0.90;;;;;;;;;;4934120;28;20251;-57
2022/09/24 03:03:47;;;;;;;0.90;0.90;;;;;;;;;;4932345;28;20278;-57
2022/09/24 03:06:13;;;;;;;1.00;1.00;;;;;;;;;;4928895;28;20667;-57
2022/09/24 03:08:40;;;;;;;1.17;1.17;;;;;;;;;;4933571;28;20226;-57
2022/09/24 03:11:06;;;;;;;0.83;0.83;;;;;;;;;;4942298;28;20338;-57
2022/09/24 03:13:32;;;;;;;0.80;0.80;;;;;;;;;;4939544;28;20757;-57
2022/09/24 03:15:58;;;;;;;1.00;1.00;;;;;;;;;;4950624;28;20238;-57
2022/09/24 03:18:24;;;;;;;1.00;1.00;;;;;;;;;;4943462;28;20795;-57
2022/09/24 03:20:57;;;;;;;1.00;1.00;;;;;;;;;;4946199;28;20711;-57
2022/09/24 03:23:23;;;;;;;0.80;0.80;;;;;;;;;;4934272;28;20770;-57
2022/09/24 03:25:48;;;;;;;1.00;1.00;;;;;;;;;;4946075;28;20230;-57
2022/09/24 03:28:14;;;;;;;0.80;0.80;;;;;;;;;;4946875;28;20223;-57
2022/09/24 03:30:58;;;;;;;0.80;0.80;;;;;;;;;;4933773;28;20247;-57
2022/09/24 03:33:25;;;;;;;1.10;1.10;;;;;;;;;;4940280;28;20219;-57
2022/09/24 03:35:55;;;;;;;0.90;0.90;;;;;;;;;;4932396;28;20223;-57
2022/09/24 03:38:21;;;;;;;0.90;0.90;;;;;;;;;;4944009;28;20257;-57
2022/09/24 03:40:47;;;;;;;0.90;0.90;;;;;;;;;;4935640;28;20230;-57
2022/09/24 03:43:13;;;;;;;0.80;0.80;;;;;;;;;;4940755;28;20893;-57
2022/09/24 03:45:39;;;;;;;0.80;0.80;;;;;;;;;;4938277;28;20351;-57
2022/09/24 03:48:05;;;;;;;0.80;0.80;;;;;;;;;;4931846;28;21056;-57
2022/09/24 03:50:31;;;;;;;0.80;0.80;;;;;;;;;;4936508;28;20219;-57
2022/09/24 03:52:57;;;;;;;1.20;1.20;;;;;;;;;;4937909;28;20229;-57
2022/09/24 03:55:23;;;;;;;1.00;1.00;;;;;;;;;;4941495;28;20719;-57
2022/09/24 03:57:49;;;;;;;0.80;0.80;;;;;;;;;;4950277;28;20292;-57
2022/09/24 04:00:15;;;;;;;1.10;1.10;;;;;;;;;;4943467;28;20265;-57
2022/09/24 04:02:41;;;;;;;1.10;1.10;;;;;;;;;;4937054;28;20230;-57
2022/09/24 04:05:07;;;;;;;0.80;0.80;;;;;;;;;;4944599;28;20747;-57
2022/09/24 04:07:33;;;;;;;1.10;1.10;;;;;;;;;;4936018;28;20274;-57
2022/09/24 04:09:59;;;;;;;0.93;0.93;;;;;;;;;;4939472;28;20277;-56
2022/09/24 04:12:26;;;;;;;1.00;1.00;;;;;;;;;;4937251;28;20223;-57
2022/09/24 04:14:52;;;;;;;1.00;1.00;;;;;;;;;;4946343;28;20231;-57
2022/09/24 04:17:18;;;;;;;0.90;0.90;;;;;;;;;;4946361;28;20642;-57
2022/09/24 04:19:44;;;;;;;0.90;0.90;;;;;;;;;;4940324;28;20226;-57
2022/09/24 04:22:10;;;;;;;1.10;1.10;;;;;;;;;;4942346;28;20245;-57
2022/09/24 04:24:36;;;;;;;0.97;0.97;;;;;;;;;;4937067;28;20719;-57
2022/09/24 04:27:02;;;;;;;1.00;1.00;;;;;;;;;;4941277;28;20231;-56
2022/09/24 04:29:28;;;;;;;1.07;1.07;;;;;;;;;;4950469;28;21093;-57
2022/09/24 04:31:54;;;;;;;0.80;0.80;;;;;;;;;;4946919;28;20233;-57
2022/09/24 04:34:20;;;;;;;0.90;0.90;;;;;;;;;;4931443;28;20352;-57
2022/09/24 04:36:46;;;;;;;1.00;1.00;;;;;;;;;;4951430;28;20226;-57
2022/09/24 04:39:12;;;;;;;0.80;0.80;;;;;;;;;;4935879;28;20230;-57
2022/09/24 04:41:39;;;;;;;1.00;1.00;;;;;;;;;;4942272;28;20234;-57
2022/09/24 04:44:05;;;;;;;1.13;1.13;;;;;;;;;;4943654;28;20235;-57
2022/09/24 04:46:33;;;;;;;1.00;1.00;;;;;;;;;;4938649;28;20606;-57
2022/09/24 04:48:59;;;;;;;0.90;0.90;;;;;;;;;;4945052;28;20235;-57
2022/09/24 04:51:25;;;;;;;0.90;0.90;;;;;;;;;;4940081;28;20710;-57
2022/09/24 04:53:51;;;;;;;0.90;0.90;;;;;;;;;;4933230;28;20246;-57
2022/09/24 04:56:17;;;;;;;1.00;1.00;;;;;;;;;;4935308;28;20247;-57
2022/09/24 04:58:43;;;;;;;1.00;1.00;;;;;;;;;;4944810;28;20226;-57
2022/09/24 05:01:09;;;;;;;1.00;1.00;;;;;;;;;;4936186;28;20241;-56
2022/09/24 05:03:35;;;;;;;0.80;0.80;;;;;;;;;;4944639;28;20262;-57
2022/09/24 05:06:01;;;;;;;1.00;1.00;;;;;;;;;;4938235;28;20719;-57
2022/09/24 05:08:27;;;;;;;0.90;0.90;;;;;;;;;;4939343;28;20245;-57
2022/09/24 05:10:53;;;;;;;1.20;1.20;;;;;;;;;;4941059;28;20327;-57
2022/09/24 05:13:20;;;;;;;0.90;0.90;;;;;;;;;;4943267;28;20229;-57
2022/09/24 05:15:46;;;;;;;1.00;1.00;;;;;;;;;;4933374;28;20254;-57
2022/09/24 05:18:12;;;;;;;0.70;0.70;;;;;;;;;;4937137;28;20230;-57
2022/09/24 05:20:38;;;;;;;0.90;0.90;;;;;;;;;;4943571;28;20271;-57
2022/09/24 05:23:04;;;;;;;0.80;0.80;;;;;;;;;;4942255;28;20281;-57
2022/09/24 05:25:30;;;;;;;0.93;0.93;;;;;;;;;;4921258;28;20700;-57
2022/09/24 05:27:56;;;;;;;0.90;0.90;;;;;;;;;;4943879;28;20321;-57
2022/09/24 05:30:22;;;;;;;0.90;0.90;;;;;;;;;;4943878;28;20294;-57
2022/09/24 05:32:50;;;;;;;1.00;1.00;;;;;;;;;;4931412;28;20709;-56
2022/09/24 05:35:17;;;;;;;1.10;1.10;;;;;;;;;;4941476;28;20711;-57
2022/09/24 05:37:44;;;;;;;0.97;0.97;;;;;;;;;;4913693;28;20230;-56
2022/09/24 05:43:01;;;;;;;0.80;0.80;;;;;;;;;;4932764;28;20264;-57
2022/09/24 05:45:28;;;;;;;0.90;0.90;;;;;;;;;;4936104;28;20945;-56
2022/09/24 05:47:54;;;;;;;0.80;0.80;;;;;;;;;;4946675;28;20278;-57
2022/09/24 05:50:20;;;;;;;1.07;1.07;;;;;;;;;;4936880;28;20215;-57
2022/09/24 05:52:46;;;;;;;0.90;0.90;;;;;;;;;;4926234;28;20230;-57
2022/09/24 05:55:12;;;;;;;0.70;0.70;;;;;;;;;;4937086;28;20692;-57
2022/09/24 05:57:38;;;;;;;1.03;1.03;;;;;;;;;;4924462;28;20260;-57
2022/09/24 06:00:04;;;;;;;0.90;0.90;;;;;;;;;;4918606;28;20226;-57
2022/09/24 06:02:30;;;;;;;0.80;0.80;;;;;;;;;;4923601;28;20672;-57
2022/09/24 06:04:56;;;;;;;0.90;0.90;;;;;;;;;;4931862;28;20825;-56
2022/09/24 06:07:22;;;;;;;0.90;0.90;;;;;;;;;;4907611;28;20227;-60
2022/09/24 06:09:49;;;;;;;1.10;1.10;;;;;;;;;;4936331;28;20231;-58
2022/09/24 06:12:16;;;;;;;0.80;0.80;;;;;;;;;;4938847;28;20219;-57
2022/09/24 06:14:42;;;;;;;1.00;1.00;;;;;;;;;;4922630;28;20886;-57
2022/09/24 06:17:08;;;;;;;0.90;0.90;;;;;;;;;;4942603;28;20321;-57
2022/09/24 06:19:34;;;;;;;0.90;0.90;;;;;;;;;;4929236;28;20747;-57
2022/09/24 06:22:00;;;;;;;0.90;0.90;;;;;;;;;;4933062;28;20224;-57
2022/09/24 06:24:26;;;;;;;1.00;1.00;;;;;;;;;;4929922;28;21063;-57
2022/09/24 06:26:52;;;;;;;0.80;0.80;;;;;;;;;;4929636;28;20239;-57
2022/09/24 06:29:18;;;;;;;1.00;1.00;;;;;;;;;;4948011;28;20269;-57
2022/09/24 06:31:44;;;;;;;0.80;0.80;;;;;;;;;;4922044;28;21397;-57
2022/09/24 06:34:10;;;;;;;0.70;0.70;;;;;;;;;;4932392;28;20787;-57
2022/09/24 06:36:36;;;;;;;1.10;1.10;;;;;;;;;;4955555;28;20238;-57
2022/09/24 06:39:02;;;;;;;0.93;0.93;;;;;;;;;;4920880;28;20357;-57
2022/09/24 06:41:28;;;;;;;0.80;0.80;;;;;;;;;;4932867;28;20223;-57
2022/09/24 06:43:54;;;;;;;0.97;0.97;;;;;;;;;;4934533;28;20241;-56
2022/09/24 06:46:22;;;;;;;0.90;0.90;;;;;;;;;;4922078;28;20233;-57
2022/09/24 06:48:48;;;;;;;0.80;0.80;;;;;;;;;;4915089;28;21329;-57
2022/09/24 06:51:14;;;;;;;0.80;0.80;;;;;;;;;;4944203;28;20250;-57
2022/09/24 06:53:40;;;;;;;0.80;0.80;;;;;;;;;;4917040;28;20228;-57
2022/09/24 06:56:06;;;;;;;0.70;0.70;;;;;;;;;;4929420;28;20233;-57
2022/09/24 06:58:32;;;;;;;0.93;0.93;;;;;;;;;;4937946;28;20580;-57
2022/09/24 07:01:00;;;;;;;0.70;0.70;;;;;;;;;;4944798;28;20766;-58
2022/09/24 07:03:26;;;;;;;0.70;0.70;;;;;;;;;;4935207;28;20232;-57
2022/09/24 07:05:52;;;;;;;0.80;0.80;;;;;;;;;;4918879;28;20255;-57
2022/09/24 07:08:18;;;;;;;1.00;1.00;;;;;;;;;;4932160;28;20872;-57
2022/09/24 07:10:44;;;;;;;0.70;0.70;;;;;;;;;;4897420;28;21141;-57
2022/09/24 07:13:11;;;;;;;0.87;0.87;;;;;;;;;;4908449;28;21135;-57
2022/09/24 07:15:37;;;;;;;0.70;0.70;;;;;;;;;;4933014;28;20238;-57
2022/09/24 07:18:03;;;;;;;0.70;0.70;;;;;;;;;;4945146;28;20226;-57
2022/09/24 07:20:29;;;;;;;0.70;0.70;;;;;;;;;;4948093;28;20227;-56
2022/09/24 07:22:55;;;;;;;0.90;0.90;;;;;;;;;;4929588;28;20365;-57
2022/09/24 07:25:21;;;;;;;0.90;0.90;;;;;;;;;;4943767;28;20223;-58
2022/09/24 07:27:47;;;;;;;0.70;0.70;;;;;;;;;;4932473;28;20237;-57
2022/09/24 07:30:13;;;;;;;1.00;1.00;;;;;;;;;;4939647;28;20751;-57
2022/09/24 07:32:39;;;;;;;0.70;0.70;;;;;;;;;;4936836;28;20249;-58
2022/09/24 07:35:05;;;;;;;0.70;0.70;;;;;;;;;;4921042;28;20312;-57
2022/09/24 07:37:32;;;;;;;0.80;0.80;;;;;;;;;;4942691;28;20223;-57
2022/09/24 07:39:58;;;;;;;0.90;0.90;;;;;;;;;;4940926;28;20229;-57
2022/09/24 07:42:24;;;;;;;0.70;0.70;;;;;;;;;;4935804;28;20231;-57
2022/09/24 07:44:50;;;;;;;0.80;0.80;;;;;;;;;;4938093;28;21394;-58
2022/09/24 07:47:16;;;;;;;0.80;0.80;;;;;;;;;;4930773;28;20322;-57
2022/09/24 07:49:43;;;;;;;0.90;0.90;;;;;;;;;;4941888;28;20366;-57
2022/09/24 07:52:10;;;;;;;0.70;0.70;;;;;;;;;;4947511;28;20227;-57
2022/09/24 07:54:35;;;;;;;0.77;0.77;;;;;;;;;;4936860;28;20226;-58
2022/09/24 07:57:01;;;;;;;0.80;0.80;;;;;;;;;;4935988;28;20304;-58
2022/09/24 07:59:28;;;;;;;0.80;0.80;;;;;;;;;;4936747;28;20236;-57
2022/09/24 08:01:54;;;;;;;0.83;0.83;;;;;;;;;;4941123;28;20844;-58
2022/09/24 08:04:20;;;;;;;0.80;0.80;;;;;;;;;;4922699;28;20230;-57
2022/09/24 08:06:47;;;;;;;0.83;0.83;;;;;;;;;;4939633;28;20224;-57
2022/09/24 08:09:14;;;;;;;0.80;0.80;;;;;;;;;;4946450;28;20233;-58
2022/09/24 08:11:40;;;;;;;0.80;0.80;;;;;;;;;;4945313;28;20237;-58
2022/09/24 08:14:06;;;;;;;0.90;0.90;;;;;;;;;;4930743;28;20227;-58
2022/09/24 08:16:32;;;;;;;0.80;0.80;;;;;;;;;;4950536;28;20230;-58
2022/09/24 08:18:58;;;;;;;0.77;0.77;;;;;;;;;;4944990;28;20330;-58
2022/09/24 08:21:24;;;;;;;0.80;0.80;;;;;;;;;;4940712;28;20246;-57
2022/09/24 08:23:50;;;;;;;0.90;0.90;;;;;;;;;;4930745;28;20258;-58
2022/09/24 08:26:16;;;;;;;0.90;0.90;;;;;;;;;;4936788;28;20292;-58
2022/09/24 08:28:42;;;;;;;0.70;0.70;;;;;;;;;;4940289;28;21156;-58
2022/09/24 08:31:10;;;;;;;0.80;0.80;;;;;;;;;;4930070;28;20317;-58
2022/09/24 08:33:36;;;;;;;0.80;0.80;;;;;;;;;;4936826;28;20228;-58
2022/09/24 08:36:03;;;;;;;0.90;0.90;;;;;;;;;;4945346;28;20982;-57
2022/09/24 08:38:28;;;;;;;0.80;0.80;;;;;;;;;;4926075;28;21420;-58
2022/09/24 08:41:13;;;;;;;0.90;0.90;;;;;;;;;;4931969;28;20227;-58
2022/09/24 08:43:51;;;;;;;0.93;0.93;;;;;;;;;;4951721;28;20238;-58
2022/09/24 08:49:06;;;;;;;0.83;0.83;;;;;;;;;;4943859;28;20242;-58
2022/09/24 08:51:35;;;;;;;0.80;0.80;;;;;;;;;;4948176;28;20577;-58
2022/09/24 08:54:08;;;;;;;0.80;0.80;;;;;;;;;;4928568;28;21183;-58
2022/09/24 08:56:35;;;;;;;0.80;0.80;;;;;;;;;;4946121;28;20296;-57
2022/09/24 08:59:31;;;;;;;0.80;0.80;;;;;;;;;;4942652;28;20311;-58
2022/09/24 09:01:57;;;;;;;0.90;0.90;;;;;;;;;;4932943;28;20876;-58
2022/09/24 09:04:47;;;;;;;0.80;0.80;;;;;;;;;;4941513;28;20706;-58
2022/09/24 09:07:20;;;;;;;1.00;1.00;;;;;;;;;;4913023;28;20779;-58
2022/09/24 09:09:52;;;;;;;0.93;0.93;;;;;;;;;;4937958;28;20274;-58
2022/09/24 09:12:26;;;;;;;1.20;1.20;;;;;;;;;;4943559;28;20682;-57
2022/09/24 09:14:55;;;;;;;0.70;0.70;;;;;;;;;;4947140;28;20837;-58
2022/09/24 09:17:29;;;;;;;0.93;0.93;;;;;;;;;;4948496;28;20341;-58
2022/09/24 09:19:56;;;;;;;0.90;0.90;;;;;;;;;;4920846;28;20234;-58
2022/09/24 09:22:23;;;;;;;0.90;0.90;;;;;;;;;;4940353;28;20281;-57
2022/09/24 09:24:49;;;;;;;0.90;0.90;;;;;;;;;;4918946;28;20345;-58
2022/09/24 09:27:20;;;;;;;1.00;1.00;;;;;;;;;;4939951;28;20586;-58
2022/09/24 09:59:22;;;;;;;0.80;0.80;;;;;;;;;;4933924;28;20280;-58
2022/09/24 10:04:28;;;;;;;0.90;0.90;;;;;;;;;;4934576;28;20262;-58
2022/09/24 10:07:36;;;;;;;0.80;0.80;;;;;;;;;;4920685;28;20640;-57
2022/09/24 10:10:23;;;;;;;0.90;0.90;;;;;;;;;;4927294;28;20258;-57
2022/09/24 10:13:12;;;;;;;0.80;0.80;;;;;;;;;;4948374;28;20230;-58
2022/09/24 10:15:51;;;;;;;0.90;0.90;;;;;;;;;;4936872;28;20833;-58
2022/09/24 10:18:17;;;;;;;0.90;0.90;;;;;;;;;;4930067;28;20230;-58
2022/09/24 10:20:47;;;;;;;0.80;0.80;;;;;;;;;;4939672;28;20231;-58
2022/09/24 10:23:23;;;;;;;0.90;0.90;;;;;;;;;;4944581;28;20259;-58
2022/09/24 10:25:58;;;;;;;0.90;0.90;;;;;;;;;;4931868;28;20218;-57
2022/09/24 10:31:30;;;;;;;0.90;0.90;;;;;;;;;;4921472;28;20257;-57
2022/09/24 10:33:56;;;;;;;0.90;0.90;;;;;;;;;;4919557;28;20230;-58
2022/09/24 10:36:24;;;;;;;1.00;1.00;;;;;;;;;;4924457;28;20250;-58
2022/09/24 10:39:00;;;;;;;0.90;0.90;;;;;;;;;;4951498;28;20307;-58
2022/09/24 10:41:30;;;;;;;0.90;0.90;;;;;;;;;;4925275;28;20276;-59
2022/09/24 10:43:57;;;;;;;1.00;1.00;;;;;;;;;;4928554;28;20308;-58
2022/09/24 10:46:32;;;;;;;0.97;0.97;;;;;;;;;;4927492;28;21319;-57
2022/09/24 10:49:04;;;;;;;0.90;0.90;;;;;;;;;;4937069;28;20294;-58
2022/09/24 10:51:49;;;;;;;0.90;0.90;;;;;;;;;;4923323;28;20528;-57
2022/09/24 10:54:21;;;;;;;0.90;0.90;;;;;;;;;;4924730;28;20607;-57
2022/09/24 10:56:57;;;;;;;1.00;1.00;;;;;;;;;;4930490;28;20271;-57
2022/09/24 10:59:42;;;;;;;1.00;1.00;;;;;;;;;;4933925;28;20219;-57
2022/09/24 11:02:26;;;;;;;1.00;1.00;;;;;;;;;;4931994;28;20837;-57
2022/09/24 11:04:59;;;;;;;1.00;1.00;;;;;;;;;;4864631;28;20227;-57
2022/09/24 11:07:25;;;;;;;1.00;1.00;;;;;;;;;;4921999;28;20668;-58
2022/09/24 11:09:54;;;;;;;0.90;0.90;;;;;;;;;;4947013;28;20231;-57
2022/09/24 11:12:46;;;;;;;0.97;0.97;;;;;;;;;;4943421;28;20227;-58
2022/09/24 11:15:23;;;;;;;0.80;0.80;;;;;;;;;;4946361;28;20763;-58
2022/09/24 11:17:57;;;;;;;0.90;0.90;;;;;;;;;;4937372;28;20236;-58
2022/09/24 11:20:26;;;;;;;0.80;0.80;;;;;;;;;;4956295;28;20309;-58
2022/09/24 11:22:55;;;;;;;1.00;1.00;;;;;;;;;;4945209;28;20619;-58
2022/09/24 11:25:37;;;;;;;0.90;0.90;;;;;;;;;;4945509;28;20218;-57
2022/09/24 11:28:03;;;;;;;0.80;0.80;;;;;;;;;;4954476;28;20223;-57
2022/09/24 11:30:34;;;;;;;0.80;0.80;;;;;;;;;;4913959;28;20238;-57
2022/09/24 11:33:03;;;;;;;1.10;1.10;;;;;;;;;;4908233;28;20238;-58
2022/09/24 11:35:48;;;;;;;0.90;0.90;;;;;;;;;;4913715;28;20233;-58
2022/09/24 11:38:14;;;;;;;0.90;0.90;;;;;;;;;;4925909;28;20690;-57
2022/09/24 11:40:52;;;;;;;0.83;0.83;;;;;;;;;;4944072;28;20338;-58
2022/09/24 11:43:32;;;;;;;0.90;0.90;;;;;;;;;;4938205;28;20230;-57
2022/09/24 11:46:04;;;;;;;1.00;1.00;;;;;;;;;;4921493;28;20234;-58
2022/09/24 11:48:40;;;;;;;0.80;0.80;;;;;;;;;;4944614;28;20225;-58
2022/09/24 11:51:13;;;;;;;1.20;1.20;;;;;;;;;;4931510;28;20235;-57
2022/09/24 11:53:41;;;;;;;1.00;1.00;;;;;;;;;;4923232;28;20427;-57
2022/09/24 11:56:16;;;;;;;1.00;1.00;;;;;;;;;;4949597;28;20231;-58
2022/09/24 11:58:43;;;;;;;1.00;1.00;;;;;;;;;;4927384;28;20745;-58
2022/09/24 12:01:10;;;;;;;1.03;1.03;;;;;;;;;;4939762;28;20739;-58
2022/09/24 12:03:42;;;;;;;0.80;0.80;;;;;;;;;;4920737;28;20679;-57
2022/09/24 12:06:11;;;;;;;0.97;0.97;;;;;;;;;;4933291;28;20231;-58
2022/09/24 12:08:46;;;;;;;1.20;1.20;;;;;;;;;;4936921;28;20234;-57
2022/09/24 12:11:17;;;;;;;1.10;1.10;;;;;;;;;;4936517;28;20241;-58
2022/09/24 12:13:55;;;;;;;1.13;1.13;;;;;;;;;;4920187;28;20684;-57
2022/09/24 12:16:23;;;;;;;0.90;0.90;;;;;;;;;;4921600;28;20630;-57
2022/09/24 12:18:50;;;;;;;0.83;0.83;;;;;;;;;;4921821;28;20701;-57
2022/09/24 12:21:35;;;;;;;1.00;1.00;;;;;;;;;;4921805;28;20298;-56
2022/09/24 12:24:05;;;;;;;0.90;0.90;;;;;;;;;;4921385;28;20219;-57
2022/09/24 12:26:31;;;;;;;1.00;1.00;;;;;;;;;;4927341;28;20531;-57
2022/09/24 12:34:37;;;;;;;0.90;0.90;;;;;;;;;;4944661;28;20236;-57
2022/09/24 12:37:04;;;;;;;1.00;1.00;;;;;;;;;;4943292;28;20234;-56
2022/09/24 12:39:32;;;;;;;0.90;0.90;;;;;;;;;;4928119;28;20683;-57
2022/09/24 12:41:59;;;;;;;0.90;0.90;;;;;;;;;;4908910;28;20226;-57
2022/09/24 12:44:38;;;;;;;1.00;1.00;;;;;;;;;;4909708;28;20326;-57
2022/09/24 12:47:05;;;;;;;0.87;0.87;;;;;;;;;;4915816;28;20242;-57
2022/09/24 12:49:34;;;;;;;0.90;0.90;;;;;;;;;;4949080;28;20232;-57
2022/09/24 12:52:04;;;;;;;0.90;0.90;;;;;;;;;;4926105;28;20640;-57
2022/09/24 12:54:37;;;;;;;0.90;0.90;;;;;;;;;;4942497;28;20231;-56
2022/09/24 12:57:16;;;;;;;0.90;0.90;;;;;;;;;;4920437;28;20235;-57
2022/09/24 13:00:01;;;;;;;1.10;1.10;;;;;;;;;;4929159;28;20230;-57
2022/09/24 13:02:34;;;;;;;1.00;1.00;;;;;;;;;;4909790;28;20316;-57
2022/09/24 13:05:00;;;;;;;1.10;1.10;;;;;;;;;;4946882;28;20231;-57
2022/09/24 13:07:29;;;;;;;0.90;0.90;;;;;;;;;;4922257;28;20636;-57
2022/09/24 13:09:55;;;;;;;1.00;1.00;;;;;;;;;;4921285;28;21442;-57
2022/09/24 13:12:23;;;;;;;0.90;0.90;;;;;;;;;;4946181;28;20233;-57
2022/09/24 13:14:49;;;;;;;1.10;1.10;;;;;;;;;;4942527;28;20222;-57
2022/09/24 13:17:15;;;;;;;1.00;1.00;;;;;;;;;;4940294;28;20243;-57
2022/09/24 13:19:41;;;;;;;1.33;1.30;;;;;;;;;;4924993;28;20305;-57
2022/09/24 13:22:17;;;;;;;1.10;1.10;;;;;;;;;;4955670;28;20231;-57
2022/09/24 13:24:50;;;;;;;1.30;1.30;;;;;;;;;;4907724;28;21243;-58
2022/09/24 13:27:20;;;;;;;1.40;1.40;;;;;;;;;;4933425;28;20248;-58
2022/09/24 13:29:46;;;;;;;1.40;1.40;;;;;;;;;;4945964;28;20293;-57
2022/09/24 13:32:15;;;;;;;1.00;1.00;;;;;;;;;;4922283;28;20234;-57
2022/09/24 13:34:41;;;;;;;0.90;0.90;;;;;;;;;;4932145;28;20223;-57
2022/09/24 13:37:11;;;;;;;1.30;1.30;;;;;;;;;;4924118;28;20696;-58
2022/09/24 13:39:45;;;;;;;1.20;1.20;;;;;;;;;;4914204;28;20269;-57
2022/09/24 13:42:18;;;;;;;1.00;1.00;;;;;;;;;;4937572;28;20233;-58
2022/09/24 13:45:03;;;;;;;1.00;1.00;;;;;;;;;;4956950;28;20299;-57
2022/09/24 13:47:41;;;;;;;1.00;1.00;;;;;;;;;;4942230;28;20278;-57
2022/09/24 13:50:17;;;;;;;1.10;1.10;;;;;;;;;;4935074;28;20624;-57
2022/09/24 13:53:05;;;;;;;1.00;1.00;;;;;;;;;;4942812;28;20685;-58
2022/09/24 13:55:36;;;;;;;1.20;1.20;;;;;;;;;;4932448;28;20627;-58
2022/09/24 13:58:02;;;;;;;1.00;1.00;;;;;;;;;;4932742;28;20310;-58
2022/09/24 14:00:28;;;;;;;1.60;1.60;;;;;;;;;;4935009;28;20246;-57
2022/09/24 14:03:02;;;;;;;1.50;1.50;;;;;;;;;;4924396;28;20231;-58
2022/09/24 14:05:28;;;;;;;1.80;1.70;;;;;;;;;;4948368;28;20293;-57
2022/09/24 14:07:55;;;;;;;1.60;1.60;;;;;;;;;;4936634;28;20228;-56
2022/09/24 14:10:23;;;;;;;2.00;1.90;;;;;;;;;;4935140;28;20226;-58
2022/09/24 14:12:58;;;;;;;2.00;1.90;;;;;;;;;;4930794;28;20235;-57
2022/09/24 14:15:25;;;;;;;1.60;1.60;;;;;;;;;;4933827;28;20230;-57
2022/09/24 14:17:57;;;;;;;1.90;1.80;;;;;;;;;;4943558;28;20223;-57
2022/09/24 14:20:24;;;;;;;1.50;1.50;;;;;;;;;;4928296;28;20750;-57
2022/09/24 14:22:50;;;;;;;1.60;1.60;;;;;;;;;;4934753;28;20231;-57
2022/09/24 14:25:17;;;;;;;1.57;1.57;;;;;;;;;;4924690;28;20223;-57
2022/09/24 14:27:44;;;;;;;1.60;1.60;;;;;;;;;;4938451;28;20223;-57
2022/09/24 14:30:20;;;;;;;1.60;1.60;;;;;;;;;;4916032;28;20696;-56
2022/09/24 14:32:49;;;;;;;1.80;1.70;;;;;;;;;;4930975;28;21103;-57
2022/09/24 14:35:26;;;;;;;1.70;1.70;;;;;;;;;;4916350;28;20222;-57
2022/09/24 14:38:05;;;;;;;1.50;1.50;;;;;;;;;;5056819;27;20903;-54
2022/09/24 14:40:38;;;;;;;1.50;1.50;;;;;;;;;;5047528;28;20964;-54
2022/09/24 14:43:04;;;;;;;1.60;1.60;;;;;;;;;;5007911;28;20685;-55
2022/09/24 14:45:33;;;;;;;1.50;1.50;;;;;;;;;;5042738;28;20261;-57
2022/09/24 14:48:06;;;;;;;1.90;1.80;;;;;;;;;;5038819;28;20777;-55
2022/09/24 14:50:34;;;;;;;1.40;1.40;;;;;;;;;;5029911;28;20235;-56
2022/09/24 14:53:00;;;;;;;1.50;1.50;;;;;;;;;;5047825;28;20214;-54
2022/09/24 14:55:39;;;;;;;1.30;1.30;;;;;;;;;;5051208;28;20223;-55
2022/09/24 14:58:05;;;;;;;1.20;1.20;;;;;;;;;;5021228;28;20804;-57
2022/09/24 15:00:36;;;;;;;1.40;1.40;;;;;;;;;;5057182;28;20927;-55
2022/09/24 15:03:03;;;;;;;1.40;1.40;;;;;;;;;;5010372;28;20275;-56
2022/09/24 15:05:29;;;;;;;1.30;1.30;;;;;;;;;;5016761;28;20224;-54
2022/09/24 15:08:14;;;;;;;1.50;1.50;;;;;;;;;;5008290;28;20649;-56
2022/09/24 15:10:40;;;;;;;1.43;1.43;;;;;;;;;;5025617;28;20671;-56
2022/09/24 15:13:13;;;;;;;1.40;1.40;;;;;;;;;;5021075;28;20876;-55
2022/09/24 15:15:39;;;;;;;1.53;1.53;;;;;;;;;;5037029;28;20261;-55
2022/09/24 15:18:09;;;;;;;1.10;1.10;;;;;;;;;;5006701;28;20280;-55
2022/09/24 15:20:35;;;;;;;1.13;1.13;;;;;;;;;;5030598;28;20896;-55
2022/09/24 15:23:01;;;;;;;1.10;1.10;;;;;;;;;;5021355;28;20703;-54
2022/09/24 15:25:28;;;;;;;1.27;1.27;;;;;;;;;;5003749;28;20228;-55
2022/09/24 15:27:54;;;;;;;1.40;1.40;;;;;;;;;;5028128;28;20516;-54
2022/09/24 15:30:20;;;;;;;1.40;1.40;;;;;;;;;;5025511;28;20308;-56
2022/09/24 15:32:46;;;;;;;1.40;1.40;;;;;;;;;;5036686;28;20644;-56
2022/09/24 15:35:13;;;;;;;1.20;1.20;;;;;;;;;;5019904;28;20304;-55
2022/09/24 15:37:39;;;;;;;1.17;1.17;;;;;;;;;;5039393;28;20244;-57
2022/09/24 15:40:07;;;;;;;1.50;1.50;;;;;;;;;;5020340;28;20247;-55
2022/09/24 15:42:33;;;;;;;1.13;1.13;;;;;;;;;;5038016;28;20684;-55